createdAt,value
2022-10-22T00:03:48.871Z,98891.17
2022-10-22T00:08:51.979Z,98902.45
2022-10-22T00:13:55.922Z,98908.42
2022-10-22T00:18:58.939Z,98909.34
2022-10-22T00:24:02.530Z,98901.20
2022-10-22T00:29:05.489Z,98894.60
2022-10-22T00:34:08.396Z,98886.14
2022-10-22T00:39:13.222Z,98876.76
2022-10-22T00:44:53.526Z,98881.63
2022-10-22T00:50:01.214Z,98890.00
2022-10-22T00:55:05.710Z,98891.38
2022-10-22T01:00:09.816Z,98877.57
2022-10-22T01:05:13.358Z,98880.80
2022-10-22T01:10:38.924Z,98880.86
2022-10-22T01:15:54.535Z,98875.84
2022-10-22T01:21:23.317Z,98865.33
2022-10-22T01:26:29.274Z,98867.84
2022-10-22T01:31:38.247Z,98870.45
2022-10-22T01:36:42.976Z,98864.59
2022-10-22T01:41:46.640Z,98862.14
2022-10-22T01:46:54.474Z,98872.75
2022-10-22T01:52:12.756Z,98868.48
2022-10-22T01:57:24.711Z,98863.10
2022-10-22T02:02:40.774Z,98866.98
2022-10-22T02:07:57.777Z,98868.94
2022-10-22T02:13:02.494Z,98852.80
2022-10-22T02:18:08.877Z,98843.41
2022-10-22T02:23:12.492Z,98847.81
2022-10-22T02:28:29.536Z,98853.77
2022-10-22T02:33:37.841Z,98846.40
2022-10-22T02:38:42.259Z,98850.64
2022-10-22T02:43:52.214Z,98862.06
2022-10-22T02:48:55.545Z,98863.66
2022-10-22T02:53:58.652Z,98855.73
2022-10-22T02:59:01.587Z,98859.94
2022-10-22T03:04:05.202Z,98855.20
2022-10-22T03:09:08.178Z,98849.83
2022-10-22T03:14:11.353Z,98849.80
2022-10-22T03:19:14.570Z,98844.00
2022-10-22T03:24:26.217Z,98852.05
2022-10-22T03:29:31.932Z,98856.80
2022-10-22T03:34:34.732Z,98850.90
2022-10-22T03:39:38.149Z,98847.82
2022-10-22T03:44:41.186Z,98857.16
2022-10-22T03:49:44.119Z,98862.48
2022-10-22T03:54:47.723Z,98859.20
2022-10-22T03:59:51.504Z,98857.02
2022-10-22T04:04:54.505Z,98849.36
2022-10-22T04:09:57.337Z,98841.33
2022-10-22T04:15:00.217Z,98823.67
2022-10-22T04:20:04.844Z,98827.61
2022-10-22T04:25:08.595Z,98825.67
2022-10-22T04:30:12.098Z,98824.99
2022-10-22T04:35:15.176Z,98830.77
2022-10-22T04:40:18.339Z,98830.45
2022-10-22T04:45:21.266Z,98833.41
2022-10-22T04:50:24.187Z,98827.16
2022-10-22T04:55:28.562Z,98817.80
2022-10-22T05:00:31.414Z,98822.20
2022-10-22T05:05:34.297Z,98840.09
2022-10-22T05:10:37.361Z,98834.88
2022-10-22T05:15:40.945Z,98838.54
2022-10-22T05:20:43.864Z,98832.03
2022-10-22T05:25:46.923Z,98833.66
2022-10-22T05:30:57.854Z,98827.80
2022-10-22T05:36:02.657Z,98818.91
2022-10-22T05:41:10.071Z,98814.05
2022-10-22T05:46:19.842Z,98826.56
2022-10-22T05:51:27.129Z,98824.15
2022-10-22T05:56:34.275Z,98846.27
2022-10-22T06:01:38.809Z,98859.56
2022-10-22T06:06:47.659Z,98853.73
2022-10-22T06:11:51.194Z,98849.35
2022-10-22T06:16:54.616Z,98845.09
2022-10-22T06:21:57.535Z,98850.97
2022-10-22T06:27:00.466Z,98868.15
2022-10-22T06:32:03.551Z,98867.25
2022-10-22T06:37:06.476Z,98866.35
2022-10-22T06:42:09.508Z,98859.55
2022-10-22T06:47:12.564Z,98867.66
2022-10-22T06:52:15.888Z,98890.84
2022-10-22T06:57:19.008Z,98896.95
2022-10-22T07:02:21.937Z,98898.04
2022-10-22T07:07:24.865Z,98904.11
2022-10-22T07:12:27.811Z,98909.65
2022-10-22T07:17:30.834Z,98907.74
2022-10-22T07:22:34.041Z,98900.38
2022-10-22T07:27:38.044Z,98895.90
2022-10-22T07:32:41.225Z,98882.60
2022-10-22T07:37:44.156Z,98893.91
2022-10-22T07:42:47.220Z,98893.52
2022-10-22T07:47:50.573Z,98912.23
2022-10-22T07:52:56.032Z,98925.32
2022-10-22T07:58:01.083Z,98897.58
2022-10-22T08:03:04.377Z,98892.27
2022-10-22T08:08:07.450Z,98882.01
2022-10-22T08:13:10.916Z,98867.52
2022-10-22T08:18:15.071Z,98858.52
2022-10-22T08:23:18.002Z,98865.84
2022-10-22T08:28:22.109Z,98858.36
2022-10-22T08:33:25.470Z,98865.33
2022-10-22T08:38:28.574Z,98890.71
2022-10-22T08:43:37.315Z,98907.85
2022-10-22T08:48:48.282Z,98908.33
2022-10-22T08:54:16.522Z,98923.36
2022-10-22T08:59:41.781Z,98916.30
2022-10-22T09:04:50.875Z,98927.97
2022-10-22T09:09:55.757Z,98927.11
2022-10-22T09:14:59.129Z,98930.55
2022-10-22T09:20:16.142Z,98922.71
2022-10-22T09:25:23.809Z,98898.44
2022-10-22T09:30:29.951Z,98875.33
2022-10-22T09:36:03.689Z,98873.67
2022-10-22T09:41:09.140Z,98893.48
2022-10-22T09:46:21.637Z,98904.79
2022-10-22T09:51:55.315Z,98909.56
2022-10-22T09:57:05.257Z,98906.77
2022-10-22T10:02:20.261Z,98900.95
2022-10-22T10:07:34.529Z,98911.77
2022-10-22T10:12:57.970Z,98911.44
2022-10-22T10:18:39.148Z,98912.33
2022-10-22T10:23:58.670Z,98926.95
2022-10-22T10:29:16.564Z,98919.77
2022-10-22T10:34:35.737Z,98912.41
2022-10-22T10:39:59.334Z,98922.73
2022-10-22T10:45:18.085Z,98922.05
2022-10-22T10:50:50.430Z,98918.67
2022-10-22T10:56:08.674Z,98916.52
2022-10-22T11:01:23.772Z,98916.99
2022-10-22T11:06:30.255Z,98919.84
2022-10-22T11:11:40.686Z,98914.16
2022-10-22T11:16:49.878Z,98909.43
2022-10-22T11:22:26.510Z,98904.19
2022-10-22T11:27:39.939Z,98904.20
2022-10-22T11:32:47.575Z,98895.84
2022-10-22T11:37:52.092Z,98894.45
2022-10-22T11:43:03.629Z,98891.34
2022-10-22T11:48:07.406Z,98890.23
2022-10-22T11:53:13.432Z,98888.80
2022-10-22T11:58:28.161Z,98880.32
2022-10-22T12:03:31.077Z,98870.02
2022-10-22T12:08:34.703Z,98861.34
2022-10-22T12:14:01.609Z,98862.39
2022-10-22T12:19:15.538Z,98857.14
2022-10-22T12:24:23.261Z,98857.72
2022-10-22T12:29:27.756Z,98859.80
2022-10-22T12:34:30.704Z,98852.95
2022-10-22T12:39:35.578Z,98856.28
2022-10-22T12:44:38.488Z,98864.23
2022-10-22T12:49:44.530Z,98864.59
2022-10-22T12:54:52.518Z,98859.02
2022-10-22T12:59:55.514Z,98856.65
2022-10-22T13:05:21.660Z,98860.94
2022-10-22T13:10:32.482Z,98853.42
2022-10-22T13:15:38.744Z,98853.51
2022-10-22T13:20:56.414Z,98848.46
2022-10-22T13:26:18.034Z,98856.06
2022-10-22T13:31:32.260Z,98854.67
2022-10-22T13:36:36.687Z,98851.89
2022-10-22T13:46:48.537Z,98845.75
2022-10-22T13:51:52.761Z,98839.66
2022-10-22T13:56:56.103Z,98839.86
2022-10-22T14:02:06.090Z,98828.83
2022-10-22T14:07:14.458Z,98822.64
2022-10-22T14:12:17.494Z,98812.59
2022-10-22T14:17:20.541Z,98806.38
2022-10-22T14:22:27.185Z,98809.89
2022-10-22T14:27:30.157Z,98821.10
2022-10-22T14:32:33.147Z,98832.75
2022-10-22T14:37:36.129Z,98837.05
2022-10-22T14:42:45.491Z,98840.42
2022-10-22T14:47:50.487Z,98842.23
2022-10-22T14:52:53.740Z,98845.90
2022-10-22T14:57:58.051Z,98850.33
2022-10-22T15:03:03.421Z,98854.04
2022-10-22T15:08:07.682Z,98854.06
2022-10-22T15:13:11.018Z,98861.99
2022-10-22T15:18:13.952Z,98858.31
2022-10-22T15:23:16.931Z,98864.89
2022-10-22T15:28:21.221Z,98863.19
2022-10-22T15:33:25.039Z,98861.68
2022-10-22T15:43:34.510Z,98855.67
2022-10-22T15:48:37.482Z,98849.83
2022-10-22T15:53:40.494Z,98845.89
2022-10-22T15:58:43.394Z,98858.79
2022-10-22T16:03:46.502Z,98865.55
2022-10-22T16:08:49.437Z,98869.42
2022-10-22T16:13:57.060Z,98867.92
2022-10-22T16:19:00.591Z,98880.11
2022-10-22T16:24:06.294Z,98884.30
2022-10-22T16:29:12.557Z,98890.52
2022-10-22T16:34:15.494Z,98901.00
2022-10-22T16:39:18.464Z,98910.44
2022-10-22T16:44:21.380Z,98910.43
2022-10-22T16:49:24.425Z,98916.88
2022-10-22T16:54:27.673Z,98923.29
2022-10-22T16:59:30.591Z,98925.73
2022-10-22T17:04:34.577Z,98931.70
2022-10-22T17:09:37.541Z,98937.22
2022-10-22T17:14:40.845Z,98944.41
2022-10-22T17:19:43.806Z,98941.71
2022-10-22T17:24:46.672Z,98940.71
2022-10-22T17:29:49.834Z,98940.81
2022-10-22T17:34:52.789Z,98935.25
2022-10-22T17:39:55.625Z,98934.05
2022-10-22T17:44:58.491Z,98939.23
2022-10-22T17:50:01.387Z,98940.39
2022-10-22T17:55:04.695Z,98934.63
2022-10-22T18:00:08.356Z,98934.55
2022-10-22T18:05:12.281Z,98940.16
2022-10-22T18:10:15.276Z,98943.95
2022-10-22T18:15:18.322Z,98950.77
2022-10-22T18:20:21.306Z,98952.23
2022-10-22T18:25:24.590Z,98958.04
2022-10-22T18:30:27.848Z,98956.21
2022-10-22T18:35:32.432Z,98954.72
2022-10-22T18:40:36.225Z,98959.06
2022-10-22T18:45:46.929Z,98965.26
2022-10-22T18:51:00.159Z,98972.48
2022-10-22T18:56:08.035Z,98977.30
2022-10-22T19:01:14.075Z,98981.99
2022-10-22T19:06:24.354Z,98982.91
2022-10-22T19:11:27.929Z,98991.54
2022-10-22T19:16:31.120Z,98995.67
2022-10-22T19:21:36.635Z,99000.92
2022-10-22T19:26:39.809Z,98998.80
2022-10-22T19:31:43.096Z,98999.11
2022-10-22T19:36:46.265Z,98997.56
2022-10-22T19:41:49.523Z,98997.46
2022-10-22T19:46:52.461Z,99000.76
2022-10-22T19:51:55.350Z,99009.33
2022-10-22T19:56:58.294Z,99022.08
2022-10-22T20:02:01.257Z,99036.27
2022-10-22T20:07:06.101Z,99043.64
2022-10-22T20:12:09.114Z,99052.33
2022-10-22T20:17:12.320Z,99065.52
2022-10-22T20:22:17.980Z,99066.30
2022-10-22T20:27:22.143Z,99068.45
2022-10-22T20:32:27.226Z,99070.40
2022-10-22T20:37:30.083Z,99072.27
2022-10-22T20:42:33.068Z,99078.90
2022-10-22T20:47:50.817Z,99087.77
2022-10-22T20:52:54.906Z,99079.48
2022-10-22T20:57:57.926Z,99087.88
2022-10-22T21:03:00.809Z,99088.95
2022-10-22T21:08:05.225Z,99091.34
2022-10-22T21:13:08.394Z,99093.94
2022-10-22T21:18:11.532Z,99096.70
2022-10-22T21:23:14.430Z,99101.46
2022-10-22T21:28:17.471Z,99108.13
2022-10-22T21:33:21.389Z,99110.38
2022-10-22T21:38:25.096Z,99112.67
2022-10-22T21:43:28.006Z,99115.85
2022-10-22T21:48:31.020Z,99116.24
2022-10-22T21:53:34.167Z,99116.18
2022-10-22T21:58:37.194Z,99122.32
2022-10-22T22:03:45.510Z,99113.51
2022-10-22T22:08:49.095Z,99110.77
2022-10-22T22:13:53.479Z,99117.32
2022-10-22T22:24:09.100Z,99127.05
2022-10-22T22:29:12.024Z,99146.44
2022-10-22T22:34:16.922Z,99150.38
2022-10-22T22:39:22.834Z,99152.45
2022-10-22T22:44:26.087Z,99157.80
2022-10-22T22:49:29.012Z,99168.65
2022-10-22T22:54:32.150Z,99161.84
2022-10-22T22:59:35.076Z,99158.12
2022-10-22T23:04:38.010Z,99162.69
2022-10-22T23:09:40.946Z,99158.45
2022-10-22T23:14:43.930Z,99163.60
2022-10-22T23:19:47.091Z,99168.57
2022-10-22T23:24:50.028Z,99168.75
2022-10-22T23:29:53.180Z,99166.00
2022-10-22T23:34:56.122Z,99173.42
2022-10-22T23:39:59.076Z,99174.30
2022-10-22T23:45:02.206Z,99182.11
2022-10-22T23:50:05.370Z,99180.89
2022-10-22T23:55:08.789Z,99183.80
